createdAt,value
2018-12-09T00:00:05.460Z,28.48
2018-12-09T00:03:35.521Z,22.92
2018-12-09T00:07:05.713Z,22.71
2018-12-09T00:10:36.075Z,19.97
2018-12-09T00:14:06.147Z,20.24
2018-12-09T00:17:36.210Z,16.32
2018-12-09T00:21:06.432Z,17.09
2018-12-09T00:24:36.474Z,17.95
2018-12-09T00:28:06.507Z,27.21
2018-12-09T00:31:36.538Z,19.41
2018-12-09T00:35:06.593Z,20.49
2018-12-09T00:38:36.737Z,24.12
2018-12-09T00:42:06.825Z,21.12
2018-12-09T00:45:36.898Z,17.06
2018-12-09T00:49:07.325Z,17.55
2018-12-09T00:52:37.382Z,20.35
2018-12-09T00:56:07.484Z,17.17
2018-12-09T00:59:37.436Z,19.2
2018-12-09T01:03:07.549Z,20.6
2018-12-09T01:06:37.691Z,22.57
2018-12-09T01:10:07.833Z,17.75
2018-12-09T01:13:37.995Z,19.46
2018-12-09T01:17:08.082Z,23.85
2018-12-09T01:20:38.086Z,28.25
2018-12-09T01:24:08.098Z,29.3
2018-12-09T01:27:38.104Z,28.35
2018-12-09T01:31:08.237Z,22.56
2018-12-09T01:34:38.329Z,26.71
2018-12-09T01:38:08.316Z,21.32
2018-12-09T01:41:38.355Z,30.61
2018-12-09T01:45:08.336Z,26.17
2018-12-09T01:48:38.618Z,13.24
2018-12-09T01:52:08.981Z,19.55
2018-12-09T01:55:39.093Z,19.59
2018-12-09T01:59:09.235Z,21.77
2018-12-09T02:00:04.673Z,16.21
2018-12-09T02:03:34.696Z,14.44
2018-12-09T02:07:04.794Z,19.92
2018-12-09T02:10:34.910Z,19.95
2018-12-09T02:14:05.175Z,10.03
2018-12-09T02:17:35.544Z,21.18
2018-12-09T02:21:05.607Z,12.29
2018-12-09T02:24:35.738Z,17.77
2018-12-09T02:28:05.991Z,28.6
2018-12-09T02:31:36.100Z,23.8
2018-12-09T02:35:07.147Z,21.69
2018-12-09T02:38:37.308Z,22.52
2018-12-09T02:42:07.376Z,21.61
2018-12-09T02:45:37.308Z,22.98
2018-12-09T02:49:07.387Z,28.01
2018-12-09T02:52:37.486Z,22.75
2018-12-09T02:56:07.490Z,27.95
2018-12-09T02:59:37.484Z,23.95
2018-12-09T03:03:07.524Z,25.36
2018-12-09T03:06:37.588Z,24.05
2018-12-09T03:10:07.552Z,24.66
2018-12-09T03:13:37.545Z,23
2018-12-09T03:17:07.852Z,19.7
2018-12-09T03:20:37.865Z,24.91
2018-12-09T03:24:08.036Z,24.14
2018-12-09T03:27:38.220Z,26.22
2018-12-09T03:31:08.552Z,19.6
2018-12-09T03:34:38.573Z,25.46
2018-12-09T03:38:08.687Z,24.59
2018-12-09T03:41:38.728Z,27.42
2018-12-09T03:45:08.811Z,24.38
2018-12-09T03:48:38.872Z,18.64
2018-12-09T03:52:08.945Z,21.5
2018-12-09T03:55:39.248Z,24.68
2018-12-09T03:59:09.370Z,24.21
2018-12-09T04:00:05.127Z,34.25
2018-12-09T04:03:35.219Z,25.05
2018-12-09T04:07:05.461Z,19.93
2018-12-09T04:10:35.614Z,20.62
2018-12-09T04:14:05.621Z,27.2
2018-12-09T04:17:35.839Z,20.44
2018-12-09T04:21:05.941Z,23.96
2018-12-09T04:24:35.947Z,24.91
2018-12-09T04:28:06.479Z,27.77
2018-12-09T04:31:36.528Z,25.84
2018-12-09T04:35:06.649Z,29.02
2018-12-09T04:38:36.703Z,28.03
2018-12-09T04:42:06.826Z,27.46
2018-12-09T04:45:36.847Z,31.16
2018-12-09T04:49:06.919Z,23.97
2018-12-09T04:52:36.895Z,30.17
2018-12-09T04:56:07.173Z,28.72
2018-12-09T04:59:45.777Z,24.74
2018-12-09T05:03:15.936Z,23.54
2018-12-09T05:06:46.070Z,18.54
2018-12-09T05:10:16.173Z,25.6
2018-12-09T05:13:46.194Z,24.01
2018-12-09T05:17:16.206Z,14.54
2018-12-09T05:20:46.309Z,13.16
2018-12-09T05:24:16.441Z,17.23
2018-12-09T05:27:46.463Z,14.26
2018-12-09T05:31:16.485Z,23.61
2018-12-09T05:34:46.496Z,23.81
2018-12-09T05:38:16.500Z,16.69
2018-12-09T05:41:46.501Z,22.23
2018-12-09T05:45:16.664Z,17.76
2018-12-09T05:48:46.687Z,14.1
2018-12-09T05:52:16.809Z,20.43
2018-12-09T05:55:46.881Z,16.2
2018-12-09T05:59:17.003Z,19.65
2018-12-09T06:00:03.991Z,21.5
2018-12-09T06:03:33.974Z,21.71
2018-12-09T06:07:04.026Z,12.7
2018-12-09T06:10:34.015Z,19.7
2018-12-09T06:14:04.104Z,22.24
2018-12-09T06:17:34.193Z,21.43
2018-12-09T06:21:04.488Z,15.79
2018-12-09T06:24:34.777Z,16.57
2018-12-09T06:28:04.960Z,17.12
2018-12-09T06:31:35.162Z,15.03
2018-12-09T06:35:05.934Z,22.19
2018-12-09T06:38:35.987Z,18.64
2018-12-09T06:42:06.169Z,17.94
2018-12-09T06:45:36.167Z,20.74
2018-12-09T06:49:06.274Z,20.06
2018-12-09T06:52:36.566Z,19.04
2018-12-09T06:56:06.658Z,28.29
2018-12-09T06:59:36.720Z,22.76
2018-12-09T07:03:06.993Z,34.1
2018-12-09T07:06:36.996Z,27.99
2018-12-09T07:10:08.068Z,34.84
2018-12-09T07:13:38.151Z,27.69
2018-12-09T07:17:08.193Z,26.34
2018-12-09T07:20:38.285Z,28.49
2018-12-09T07:24:08.848Z,25.09
2018-12-09T07:27:38.930Z,27.24
2018-12-09T07:31:09.132Z,31
2018-12-09T07:34:39.165Z,28.89
2018-12-09T07:38:09.245Z,26.55
2018-12-09T07:41:39.310Z,26.62
2018-12-09T07:45:09.394Z,29.6
2018-12-09T07:48:39.425Z,21.42
2018-12-09T07:52:09.468Z,17.76
2018-12-09T07:55:39.510Z,25.73
2018-12-09T07:59:10.492Z,18.07
2018-12-09T08:00:04.450Z,18.34
2018-12-09T08:03:34.613Z,18.21
2018-12-09T08:07:04.785Z,22.34
2018-12-09T08:10:34.848Z,21.6
2018-12-09T08:14:04.890Z,22.25
2018-12-09T08:17:34.902Z,15.11
2018-12-09T08:21:05.016Z,18.07
2018-12-09T08:24:35.188Z,19.73
2018-12-09T08:28:05.231Z,14.29
2018-12-09T08:31:35.332Z,19.67
2018-12-09T08:35:05.435Z,16.8
2018-12-09T08:38:35.477Z,17.27
2018-12-09T08:42:05.559Z,20.64
2018-12-09T08:45:35.579Z,16.16
2018-12-09T08:49:05.664Z,20.38
2018-12-09T08:52:35.646Z,26.45
2018-12-09T08:56:05.929Z,24.25
2018-12-09T08:59:35.992Z,44.09
2018-12-09T09:03:06.084Z,27.01
2018-12-09T09:06:36.117Z,30.41
2018-12-09T09:10:06.388Z,30.64
2018-12-09T09:13:36.462Z,32.65
2018-12-09T09:17:06.555Z,32.7
2018-12-09T09:20:36.622Z,32.74
2018-12-09T09:24:06.779Z,26.49
2018-12-09T09:27:37.052Z,29.83
2018-12-09T09:31:07.101Z,35.36
2018-12-09T09:34:37.187Z,32.79
2018-12-09T09:38:07.310Z,26.91
2018-12-09T09:41:37.392Z,29.67
2018-12-09T09:45:07.520Z,26.24
2018-12-09T09:48:37.671Z,23.61
2018-12-09T09:52:07.768Z,26.46
2018-12-09T09:55:37.861Z,25.55
2018-12-09T09:59:08.014Z,25.73
2018-12-09T10:00:04.283Z,28.09
2018-12-09T10:03:34.348Z,30.34
2018-12-09T10:07:04.467Z,33.95
2018-12-09T10:10:34.710Z,36.38
2018-12-09T10:14:04.843Z,35.65
2018-12-09T10:17:34.956Z,52.28
2018-12-09T10:21:04.992Z,56.03
2018-12-09T10:24:35.031Z,50.58
2018-12-09T10:28:05.282Z,48.31
2018-12-09T10:31:35.354Z,45.97
2018-12-09T10:35:05.537Z,54.41
2018-12-09T10:38:35.549Z,65.7
2018-12-09T10:42:05.592Z,54.48
2018-12-09T10:45:35.704Z,42.2
2018-12-09T10:49:05.837Z,38.47
2018-12-09T10:52:35.852Z,37.19
2018-12-09T10:56:05.992Z,37.8
2018-12-09T10:59:35.995Z,43.08
2018-12-09T11:03:06.198Z,57.65
2018-12-09T11:06:36.399Z,46.98
2018-12-09T11:10:06.762Z,37.42
2018-12-09T11:13:36.875Z,41.02
2018-12-09T11:17:06.917Z,54.25
2018-12-09T11:20:36.927Z,49.15
2018-12-09T11:24:07.053Z,60.47
2018-12-09T11:27:37.135Z,52.1
2018-12-09T11:31:07.356Z,43.23
2018-12-09T11:34:37.421Z,44.69
2018-12-09T11:38:07.438Z,45.42
2018-12-09T11:41:37.442Z,46.55
2018-12-09T11:45:07.588Z,47.27
2018-12-09T11:48:37.700Z,45.25
2018-12-09T11:52:07.783Z,42.59
2018-12-09T11:55:37.896Z,42.65
2018-12-09T11:59:07.930Z,49.6
2018-12-09T12:00:05.532Z,53.86
2018-12-09T12:03:35.689Z,54
2018-12-09T12:07:05.781Z,56.7
2018-12-09T12:10:35.919Z,52.56
2018-12-09T12:14:06.017Z,51.92
2018-12-09T12:17:36.204Z,48.39
2018-12-09T12:21:06.242Z,59.71
2018-12-09T12:24:36.290Z,59.23
2018-12-09T12:28:06.377Z,57.96
2018-12-09T12:31:36.609Z,49.05
2018-12-09T12:35:06.711Z,60.02
2018-12-09T12:38:36.764Z,50.23
2018-12-09T12:42:06.856Z,67.49
2018-12-09T12:45:36.989Z,58.46
2018-12-09T12:49:07.111Z,61.4
2018-12-09T12:52:37.244Z,65.96
2018-12-09T12:56:07.326Z,56.01
2018-12-09T12:59:37.400Z,56.38
2018-12-09T13:03:07.524Z,54.39
2018-12-09T13:06:37.636Z,53.86
2018-12-09T13:10:07.821Z,63.64
2018-12-09T13:13:38.338Z,61.75
2018-12-09T13:17:08.390Z,65.71
2018-12-09T13:20:38.453Z,67.84
2018-12-09T13:24:08.482Z,61.65
2018-12-09T13:27:38.528Z,71.1
2018-12-09T13:31:08.530Z,73.43
2018-12-09T13:34:38.892Z,70.4
2018-12-09T13:38:08.955Z,69.86
2018-12-09T13:41:39.017Z,68.88
2018-12-09T13:45:09.122Z,74.88
2018-12-09T13:48:39.202Z,65.59
2018-12-09T13:52:09.386Z,73.95
2018-12-09T13:55:39.403Z,72.72
2018-12-09T13:59:09.427Z,82.19
2018-12-09T14:00:04.918Z,74.51
2018-12-09T14:03:34.930Z,77.16
2018-12-09T14:07:04.966Z,73.21
2018-12-09T14:10:35.014Z,103.85
2018-12-09T14:14:05.147Z,72.54
2018-12-09T14:17:35.289Z,29.14
2018-12-09T14:21:05.412Z,45.9
2018-12-09T14:24:35.424Z,99.53
2018-12-09T14:28:05.527Z,237.68
2018-12-09T14:31:35.739Z,171.64
2018-12-09T14:35:07.171Z,127.46
2018-12-09T14:38:37.254Z,92.85
2018-12-09T14:42:07.337Z,77.3
2018-12-09T14:45:37.335Z,105.35
2018-12-09T14:49:07.404Z,97.88
2018-12-09T14:52:37.444Z,76.95
2018-12-09T14:56:07.606Z,91.56
2018-12-09T14:59:37.719Z,86.4
2018-12-09T15:03:07.841Z,90.08
2018-12-09T15:06:37.934Z,80.79
2018-12-09T15:10:09.000Z,68.38
2018-12-09T15:13:39.107Z,71.91
2018-12-09T15:17:09.141Z,74.78
2018-12-09T15:20:39.213Z,71.65
2018-12-09T15:24:09.276Z,87.01
2018-12-09T15:27:39.472Z,48.5
2018-12-09T15:31:09.611Z,51.4
2018-12-09T15:34:39.673Z,53
2018-12-09T15:38:09.825Z,52.34
2018-12-09T15:41:39.890Z,32.62
2018-12-09T15:45:09.910Z,37.16
2018-12-09T15:48:39.992Z,44.16
2018-12-09T15:52:09.997Z,35.31
2018-12-09T15:55:40.007Z,33.86
2018-12-09T15:59:10.031Z,33.42
2018-12-09T16:00:03.357Z,45.17
2018-12-09T16:03:33.340Z,32.61
2018-12-09T16:07:03.371Z,36.09
2018-12-09T16:10:33.424Z,39.54
2018-12-09T16:14:03.796Z,38.3
2018-12-09T16:17:33.928Z,25.61
2018-12-09T16:21:03.994Z,56.67
2018-12-09T16:24:34.623Z,48.28
2018-12-09T16:28:04.882Z,48.21
2018-12-09T16:31:34.977Z,35.26
2018-12-09T16:35:07.049Z,32.21
2018-12-09T16:38:37.353Z,37.66
2018-12-09T16:42:07.464Z,35.89
2018-12-09T16:45:37.579Z,38.41
2018-12-09T16:49:07.679Z,65.99
2018-12-09T16:52:37.804Z,62.49
2018-12-09T16:56:07.830Z,57.44
2018-12-09T16:59:37.906Z,81.44
2018-12-09T17:03:08.029Z,105.11
2018-12-09T17:06:38.021Z,124.76
2018-12-09T17:10:08.208Z,100.75
2018-12-09T17:13:38.266Z,150.79
2018-12-09T17:17:08.390Z,142.34
2018-12-09T17:20:38.491Z,158.72
2018-12-09T17:24:08.532Z,153.61
2018-12-09T17:27:38.506Z,110.46
2018-12-09T17:31:08.768Z,111.44
2018-12-09T17:34:38.791Z,108.35
2018-12-09T17:38:08.943Z,115.62
2018-12-09T17:41:39.015Z,120.81
2018-12-09T17:45:09.170Z,103.79
2018-12-09T17:48:39.150Z,86.56
2018-12-09T17:52:09.253Z,68.09
2018-12-09T17:55:39.295Z,73.84
2018-12-09T17:59:09.437Z,90.08
2018-12-09T18:00:03.831Z,93.36
2018-12-09T18:03:33.837Z,79.72
2018-12-09T18:07:04.070Z,76.55
2018-12-09T18:10:34.173Z,53.54
2018-12-09T18:14:04.355Z,54.73
2018-12-09T18:17:34.422Z,42.54
2018-12-09T18:21:04.490Z,42.55
2018-12-09T18:24:34.542Z,44.86
2018-12-09T18:28:04.714Z,48.34
2018-12-09T18:31:34.796Z,40.79
2018-12-09T18:35:06.359Z,49.77
2018-12-09T18:38:36.411Z,43.26
2018-12-09T18:42:06.763Z,50.46
2018-12-09T18:45:36.835Z,42.53
2018-12-09T18:49:06.887Z,40.66
2018-12-09T18:52:36.993Z,39.38
2018-12-09T18:56:07.066Z,38.56
2018-12-09T18:59:37.105Z,62.27
2018-12-09T19:03:07.187Z,56.47
2018-12-09T19:06:37.280Z,51.56
2018-12-09T19:10:07.452Z,52.51
2018-12-09T19:13:37.434Z,48.24
2018-12-09T19:17:07.654Z,36.52
2018-12-09T19:20:37.769Z,37.7
2018-12-09T19:24:07.772Z,49.56
2018-12-09T19:27:37.794Z,50.15
2018-12-09T19:31:07.817Z,48.45
2018-12-09T19:34:37.872Z,49.14
2018-12-09T19:38:07.932Z,48.95
2018-12-09T19:41:38.004Z,52.05
2018-12-09T19:45:08.422Z,47.11
2018-12-09T19:48:38.668Z,56.3
2018-12-09T19:52:08.686Z,46.2
2018-12-09T19:55:39.333Z,36.73
2018-12-09T20:00:23.733Z,42.51
2018-12-09T20:04:43.023Z,50.12
2018-12-09T20:08:47.374Z,25.73
2018-12-09T20:12:17.468Z,35.35
2018-12-09T20:16:25.226Z,30.14
2018-12-09T20:19:55.233Z,45.92
2018-12-09T20:23:25.371Z,41.95
2018-12-09T20:26:55.430Z,39.18
2018-12-09T20:30:25.555Z,35.36
2018-12-09T20:33:55.632Z,38.6
2018-12-09T20:37:25.759Z,49.46
2018-12-09T20:40:55.801Z,40.93
2018-12-09T20:44:25.993Z,33.35
2018-12-09T20:47:56.207Z,40
2018-12-09T20:51:26.313Z,36.48
2018-12-09T20:54:56.272Z,38.39
2018-12-09T20:58:26.393Z,35.06
2018-12-09T21:01:56.996Z,37.25
2018-12-09T21:05:27.269Z,43.53
2018-12-09T21:08:57.332Z,38.4
2018-12-09T21:12:27.442Z,39.56
2018-12-09T21:15:57.523Z,40.75
2018-12-09T21:19:27.642Z,30.89
2018-12-09T21:22:57.644Z,39.66
2018-12-09T21:26:27.733Z,36.91
2018-12-09T21:29:57.752Z,40.33
2018-12-09T21:33:27.826Z,31.79
2018-12-09T21:36:57.812Z,29.83
2018-12-09T21:40:27.902Z,37.79
2018-12-09T21:43:57.923Z,9.24
2018-12-09T21:47:27.932Z,28.74
2018-12-09T21:50:58.112Z,37.67
2018-12-09T21:54:28.153Z,30.8
2018-12-09T21:57:58.203Z,37.09
2018-12-09T22:00:17.003Z,35.06
2018-12-09T22:03:47.143Z,36.48
2018-12-09T22:07:17.256Z,31.26
2018-12-09T22:10:47.363Z,40.65
2018-12-09T22:14:17.783Z,25.71
2018-12-09T22:17:47.973Z,27.49
2018-12-09T22:21:18.073Z,42.6
2018-12-09T22:24:48.154Z,42.11
2018-12-09T22:28:18.293Z,33.05
2018-12-09T22:31:48.263Z,29.77
2018-12-09T22:35:18.323Z,5.14
2018-12-09T22:38:48.442Z,6.15
2018-12-09T22:42:18.562Z,20.85
2018-12-09T22:45:48.562Z,23.36
2018-12-09T22:49:18.702Z,26.19
2018-12-09T22:52:48.882Z,26.19
2018-12-09T22:56:19.001Z,17.81
2018-12-09T22:59:49.072Z,22.85
2018-12-09T23:03:19.151Z,27.24
2018-12-09T23:06:49.154Z,23.1
2018-12-09T23:10:19.452Z,20.5
2018-12-09T23:13:49.561Z,33.89
2018-12-09T23:17:19.611Z,29.84
2018-12-09T23:20:49.571Z,31.64
2018-12-09T23:24:19.591Z,25.79
2018-12-09T23:27:49.661Z,20.43
2018-12-09T23:31:19.830Z,25.45
2018-12-09T23:34:49.895Z,19.54
2018-12-09T23:38:20.271Z,19.35
2018-12-09T23:41:50.421Z,18.52
2018-12-09T23:45:20.520Z,16.43
2018-12-09T23:48:50.568Z,16.36
2018-12-09T23:52:20.740Z,23.21
2018-12-09T23:55:51.030Z,21.98
2018-12-09T23:59:21.071Z,13.65
